| time (UTC) | temp C | wind direction | speed KPH | gust KPH | rain 1hr cm | rain 24hr cm | rain mn cm | humidity % | barometer mb |
| 20260505184425 | 15 | 359 | 3.2 | 6.4 | 0.00 | 0.74 | 2.79 | 79 | 1016.8 |
| 20260505183451 | 15 | 359 | 3.2 | 6.4 | 0.00 | 0.74 | 2.79 | 80 | 1016.8 |
| 20260505182429 | 15 | 359 | 1.6 | 6.4 | 0.00 | 0.74 | 2.79 | 82 | 1017.0 |
| 20260505181424 | 15 | 359 | 1.6 | 6.4 | 0.00 | 0.74 | 2.79 | 83 | 1016.9 |
| 20260505180423 | 14 | 359 | 1.6 | 4.8 | 0.00 | 0.74 | 2.79 | 84 | 1016.9 |
| 20260505175424 | 13 | 359 | 1.6 | 6.4 | 0.00 | 0.74 | 2.79 | 83 | 1016.8 |
| 20260505174422 | 13 | 359 | 3.2 | 6.4 | 0.00 | 0.74 | 2.79 | 85 | 1016.6 |
| 20260505173418 | 13 | 359 | 3.2 | 6.4 | 0.00 | 0.74 | 2.79 | 86 | 1016.5 |
| 20260505172431 | 13 | 359 | 1.6 | 4.8 | 0.00 | 0.74 | 2.79 | 88 | 1016.5 |
| 20260505171431 | 13 | 359 | 1.6 | 6.4 | 0.00 | 0.74 | 2.79 | 89 | 1016.4 |
| 20260505170427 | 13 | 359 | 0.0 | 3.2 | 0.00 | 0.74 | 2.79 | 91 | 1016.6 |
| 20260505165427 | 12 | 359 | 1.6 | 4.8 | 0.00 | 0.74 | 2.79 | 92 | 1016.5 |
| 20260505164427 | 12 | 359 | 0.0 | 4.8 | 0.00 | 0.74 | 2.79 | 92 | 1016.4 |
| 20260505163448 | 12 | 359 | 3.2 | 6.4 | 0.00 | 0.74 | 2.79 | 92 | 1016.5 |
| 20260505162423 | 12 | 359 | 0.0 | 1.6 | 0.00 | 0.74 | 2.79 | 93 | 1016.5 |
| 20260505161423 | 12 | 359 | 1.6 | 3.2 | 0.00 | 0.74 | 2.79 | 93 | 1016.5 |
| 20260505160422 | 12 | 359 | 0.0 | 4.8 | 0.00 | 0.74 | 2.79 | 94 | 1016.4 |
| 20260505152413 | 11 | 359 | 1.6 | 4.8 | 0.00 | 0.74 | 2.79 | 95 | 1016.1 |
| 20260505151414 | 11 | 359 | 0.0 | 4.8 | 0.00 | 0.74 | 2.79 | 95 | 1016.1 |
| 20260505150415 | 11 | 359 | 1.6 | 3.2 | 0.00 | 0.74 | 2.79 | 95 | 1016.0 |
| 20260505140416 | 11 | 359 | 0.0 | 1.6 | 0.00 | 0.74 | 2.79 | 96 | 1015.9 |
| 20260505124426 | 11 | 359 | 0.0 | 3.2 | 0.00 | 0.74 | 2.79 | 96 | 1015.4 |
| 20260505123426 | 11 | 359 | 0.0 | 3.2 | 0.00 | 0.74 | 2.79 | 96 | 1015.3 |
| 20260505121447 | 11 | 359 | 0.0 | 3.2 | 0.00 | 0.74 | 2.79 | 96 | 1015.4 |
| 20260505120428 | 11 | 359 | 0.0 | 3.2 | 0.00 | 0.74 | 2.79 | 96 | 1015.4 |
| 20260505115418 | 11 | 359 | 0.0 | 3.2 | 0.00 | 0.74 | 2.79 | 96 | 1015.4 |
| 20260505114449 | 10 | 359 | 1.6 | 3.2 | 0.00 | 0.74 | 2.79 | 96 | 1015.4 |
| 20260505113430 | 10 | 359 | 1.6 | 3.2 | 0.00 | 0.74 | 2.79 | 96 | 1015.4 |
| 20260505112421 | 10 | 359 | 0.0 | 3.2 | 0.00 | 0.74 | 2.79 | 96 | 1015.5 |
| 20260505111422 | 10 | 359 | 0.0 | 3.2 | 0.00 | 0.74 | 2.79 | 96 | 1015.5 |
| 20260505110421 | 10 | 359 | 0.0 | 6.4 | 0.00 | 0.74 | 2.79 | 95 | 1015.6 |
| 20260505101429 | 10 | 359 | 0.0 | 4.8 | 0.03 | 0.74 | 2.79 | 96 | 1015.7 |
| 20260505100432 | 10 | 359 | 0.0 | 4.8 | 0.03 | 0.74 | 2.79 | 95 | 1015.7 |
| 20260505095431 | 10 | 359 | 0.0 | 4.8 | 0.05 | 0.74 | 2.79 | 95 | 1015.5 |
| 20260505094431 | 11 | 359 | 1.6 | 3.2 | 0.08 | 0.74 | 2.79 | 95 | 1015.8 |
| 20260505093452 | 11 | 359 | 1.6 | 4.8 | 0.08 | 0.74 | 2.79 | 95 | 1015.8 |
| 20260505092430 | 11 | 359 | 0.0 | 3.2 | 0.10 | 0.74 | 2.79 | 95 | 1016.0 |
| 20260505091423 | 11 | 359 | 1.6 | 3.2 | 0.10 | 0.71 | 2.54 | 95 | 1016.0 |
| 20260505090416 | 11 | 359 | 1.6 | 3.2 | 0.13 | 0.71 | 2.54 | 95 | 1016.0 |
| 20260505085434 | 11 | 359 | 1.6 | 4.8 | 0.13 | 0.69 | 2.29 | 95 | 1016.1 |
| 20260505084432 | 11 | 359 | 0.0 | 1.6 | 0.13 | 0.66 | 2.03 | 95 | 1016.2 |
| 20260505083431 | 11 | 359 | 0.0 | 1.6 | 0.15 | 0.66 | 2.03 | 95 | 1016.4 |
| 20260505082424 | 11 | 359 | 0.0 | 4.8 | 0.15 | 0.64 | 1.78 | 95 | 1016.4 |
| 20260505081444 | 11 | 359 | 0.0 | 4.8 | 0.15 | 0.61 | 1.52 | 95 | 1016.3 |
| 20260505080423 | 10 | 359 | 0.0 | 3.2 | 0.13 | 0.58 | 1.27 | 95 | 1016.3 |
| 20260505075420 | 10 | 359 | 0.0 | 1.6 | 0.13 | 0.56 | 1.02 | 95 | 1016.5 |
| 20260505074413 | 10 | 359 | 0.0 | 1.6 | 0.10 | 0.53 | 0.76 | 95 | 1016.4 |
| 20260505073427 | 10 | 359 | 0.0 | 1.6 | 0.08 | 0.51 | 0.51 | 95 | 1016.6 |
| 20260505072427 | 10 | 359 | 0.0 | 1.6 | 0.08 | 0.48 | 0.25 | 95 | 1016.4 |
| 20260505071448 | 10 | 359 | 0.0 | 1.6 | 0.08 | 0.46 | 0.00 | 94 | 1016.5 |
| 20260505070441 | 10 | 359 | 0.0 | 0.0 | 0.10 | 0.46 | 0.00 | 94 | 1016.7 |
| 20260505065420 | 10 | 359 | 0.0 | 0.0 | 0.10 | 0.43 | 4.32 | 94 | 1016.7 |
| 20260505064420 | 10 | 359 | 0.0 | 0.0 | 0.13 | 0.43 | 4.32 | 94 | 1016.8 |
| 20260505063421 | 10 | 359 | 0.0 | 1.6 | 0.15 | 0.43 | 4.32 | 94 | 1016.7 |
| 20260505062421 | 10 | 359 | 0.0 | 3.2 | 0.15 | 0.41 | 4.06 | 93 | 1016.6 |
| 20260505061437 | 10 | 359 | 0.0 | 3.2 | 0.15 | 0.38 | 3.81 | 93 | 1016.3 |
| 20260505060417 | 10 | 359 | 0.0 | 3.2 | 0.13 | 0.36 | 3.56 | 93 | 1016.3 |
| 20260505055430 | 10 | 359 | 0.0 | 1.6 | 0.13 | 0.33 | 3.30 | 93 | 1016.5 |
| 20260505054412 | 10 | 359 | 0.0 | 0.0 | 0.13 | 0.30 | 3.05 | 93 | 1016.6 |
| 20260505053415 | 11 | 359 | 0.0 | 1.6 | 0.13 | 0.28 | 2.79 | 92 | 1016.8 |
| 20260505052428 | 11 | 359 | 0.0 | 0.0 | 0.13 | 0.25 | 2.54 | 92 | 1016.4 |
| 20260505051425 | 11 | 359 | 0.0 | 1.6 | 0.13 | 0.23 | 2.29 | 92 | 1016.4 |
| 20260505050425 | 11 | 359 | 0.0 | 1.6 | 0.15 | 0.23 | 2.29 | 91 | 1016.4 |
| 20260505041416 | 11 | 359 | 0.0 | 1.6 | 0.08 | 0.10 | 1.02 | 91 | 1017.1 |
| 20260505040430 | 11 | 359 | 0.0 | 0.0 | 0.05 | 0.08 | 0.76 | 91 | 1017.1 |
| 20260505035412 | 11 | 359 | 0.0 | 0.0 | 0.05 | 0.05 | 0.51 | 90 | 1016.8 |
| 20260505034412 | 11 | 359 | 0.0 | 1.6 | 0.05 | 0.05 | 0.51 | 89 | 1016.4 |
| 20260505033415 | 11 | 359 | 1.6 | 3.2 | 0.05 | 0.05 | 0.51 | 88 | 1016.2 |
| 20260505032414 | 12 | 359 | 0.0 | 4.8 | 0.03 | 0.03 | 0.25 | 88 | 1016.0 |
| 20260505031427 | 12 | 359 | 1.6 | 6.4 | 0.03 | 0.03 | 0.25 | 89 | 1015.9 |
| 20260505030442 | 12 | 359 | 1.6 | 8.0 | 0.03 | 0.03 | 0.25 | 89 | 1015.9 |
| 20260505025420 | 12 | 359 | 1.6 | 4.8 | 0.00 | 0.00 | 0.00 | 88 | 1015.9 |
| 20260505024415 | 12 | 359 | 0.0 | 8.0 | 0.00 | 0.00 | 0.00 | 88 | 1015.9 |
| 20260505023411 | 12 | 359 | 1.6 | 8.0 | 0.00 | 0.00 | 0.00 | 88 | 1016.0 |
| 20260505022413 | 12 | 359 | 1.6 | 4.8 | 0.00 | 0.00 | 0.00 | 88 | 1016.0 |
| 20260505021413 | 12 | 359 | 1.6 | 6.4 | 0.00 | 0.00 | 0.00 | 87 | 1016.0 |
| 20260505020415 | 13 | 359 | 0.0 | 4.8 | 0.00 | 0.00 | 0.00 | 87 | 1015.9 |
| 20260505015436 | 13 | 359 | 1.6 | 8.0 | 0.00 | 0.00 | 0.00 | 87 | 1016.2 |
| 20260505014440 | 13 | 359 | 1.6 | 3.2 | 0.00 | 0.00 | 0.00 | 86 | 1016.2 |
| 20260505013440 | 13 | 359 | 1.6 | 6.4 | 0.00 | 0.00 | 0.00 | 84 | 1016.4 |
| 20260505012426 | 13 | 359 | 1.6 | 6.4 | 0.00 | 0.00 | 0.00 | 83 | 1016.3 |
| 20260505011432 | 13 | 359 | 1.6 | 4.8 | 0.00 | 0.00 | 0.00 | 82 | 1016.4 |
| 20260505010431 | 14 | 359 | 0.0 | 3.2 | 0.00 | 0.00 | 0.00 | 80 | 1016.4 |
| 20260505005430 | 14 | 359 | 1.6 | 6.4 | 0.00 | 0.00 | 0.00 | 80 | 1016.2 |
| 20260505004432 | 15 | 359 | 1.6 | 4.8 | 0.00 | 0.00 | 0.00 | 78 | 1016.3 |
| 20260505003429 | 15 | 359 | 1.6 | 4.8 | 0.00 | 0.00 | 0.00 | 73 | 1016.3 |
| 20260505002423 | 15 | 359 | 1.6 | 4.8 | 0.00 | 0.00 | 0.00 | 71 | 1016.4 |
| 20260505001422 | 15 | 359 | 3.2 | 9.7 | 0.00 | 0.00 | 0.00 | 72 | 1016.3 |
| 20260505000423 | 15 | 359 | 1.6 | 8.0 | 0.00 | 0.00 | 0.00 | 71 | 1016.3 |
| 20260504235425 | 15 | 359 | 1.6 | 6.4 | 0.00 | 0.00 | 0.00 | 70 | 1016.2 |
| 20260504234443 | 15 | 359 | 1.6 | 6.4 | 0.00 | 0.00 | 0.00 | 68 | 1016.2 |
| 20260504233424 | 15 | 359 | 3.2 | 6.4 | 0.00 | 0.00 | 0.00 | 69 | 1016.2 |
| 20260504232443 | 16 | 359 | 1.6 | 4.8 | 0.00 | 0.00 | 0.00 | 70 | 1016.1 |
| 20260504231422 | 16 | 359 | 1.6 | 9.7 | 0.00 | 0.00 | 0.00 | 70 | 1016.1 |
| 20260504230441 | 16 | 359 | 3.2 | 6.4 | 0.00 | 0.00 | 0.00 | 68 | 1016.1 |
| 20260504225420 | 16 | 359 | 1.6 | 4.8 | 0.00 | 0.00 | 0.00 | 69 | 1016.1 |
| 20260504224415 | 16 | 359 | 1.6 | 9.7 | 0.00 | 0.00 | 0.00 | 69 | 1016.0 |
| 20260504223459 | 16 | 359 | 1.6 | 4.8 | 0.00 | 0.00 | 0.00 | 67 | 1016.2 |
| 20260504222435 | 16 | 359 | 1.6 | 6.4 | 0.00 | 0.00 | 0.00 | 67 | 1016.3 |
| 20260504221425 | 17 | 359 | 1.6 | 4.8 | 0.00 | 0.00 | 0.00 | 65 | 1016.4 |
| 20260504220424 | 17 | 359 | 1.6 | 4.8 | 0.00 | 0.00 | 0.00 | 65 | 1016.3 |
| 20260504215418 | 17 | 359 | 3.2 | 8.0 | 0.00 | 0.00 | 0.00 | 65 | 1016.5 |
| 20260504214419 | 17 | 359 | 1.6 | 6.4 | 0.00 | 0.00 | 0.00 | 67 | 1016.3 |
| 20260504213419 | 17 | 359 | 0.0 | 4.8 | 0.00 | 0.00 | 0.00 | 70 | 1016.4 |
| 20260504212439 | 17 | 359 | 3.2 | 9.7 | 0.00 | 0.00 | 0.00 | 72 | 1016.4 |
| 20260504211413 | 16 | 359 | 3.2 | 8.0 | 0.00 | 0.00 | 0.00 | 69 | 1016.5 |
| 20260504210415 | 16 | 359 | 6.4 | 12.9 | 0.00 | 0.00 | 0.00 | 69 | 1016.3 |
| 20260504205418 | 17 | 359 | 3.2 | 12.9 | 0.00 | 0.00 | 0.00 | 70 | 1016.4 |
| 20260504204418 | 17 | 359 | 4.8 | 14.5 | 0.00 | 0.00 | 0.00 | 70 | 1016.5 |
| 20260504203429 | 17 | 359 | 1.6 | 6.4 | 0.00 | 0.00 | 0.00 | 69 | 1016.5 |
| 20260504202429 | 17 | 359 | 3.2 | 8.0 | 0.00 | 0.00 | 0.00 | 68 | 1016.4 |
| 20260504201449 | 17 | 359 | 3.2 | 9.7 | 0.00 | 0.00 | 0.00 | 67 | 1016.3 |
| 20260504200455 | 17 | 359 | 3.2 | 8.0 | 0.00 | 0.00 | 0.00 | 66 | 1016.4 |
| 20260504195427 | 18 | 359 | 3.2 | 9.7 | 0.00 | 0.00 | 0.00 | 66 | 1016.3 |
| 20260504194419 | 17 | 359 | 1.6 | 8.0 | 0.00 | 0.00 | 0.00 | 66 | 1016.4 |
| 20260504193419 | 17 | 359 | 1.6 | 16.1 | 0.00 | 0.00 | 0.00 | 69 | 1016.6 |
| 20260504192419 | 17 | 359 | 3.2 | 9.7 | 0.00 | 0.00 | 0.00 | 71 | 1016.4 |
| 20260504191421 | 16 | 359 | 1.6 | 8.0 | 0.00 | 0.00 | 0.00 | 74 | 1016.6 |
| 20260504190500 | 16 | 359 | 1.6 | 6.4 | 0.00 | 0.00 | 0.00 | 75 | 1016.6 |
| 20260504185412 | 15 | 359 | 1.6 | 4.8 | 0.00 | 0.00 | 0.00 | 75 | 1016.7 |